Split, Croatia
Current Conditions -  °F | °C
As of 10:00 AM on Wednesday 22 Oct 2014 (Local Time) from LDSP Reporting Station
Light Rain Light Rain  
Wind Chill: 52°   Ceiling: 6400
Heat Index: 52°   Visibility: 6mi
Dew Point: 48°   Wind: 15mph
Humidity: 88%   Direction: 320°NW
Pressure: 29.56"   Gusts: NA
Location:  43.51°N, 16.45°E
Report Text: LDSP 220800Z 32013KT 280V020 9999 -RA SCT035 BKN064 11/09 Q1001 TEMPO 02015G25KT
Loading
Personal Weather Stations






























Interactive Weather Map
Tropical Storm Tracking
New forecast layout! Learn more

10-Day Weather Forecast

Advertisements
Track Severe Weather on mobile